Eiwamaru — JG5742 — position and weather

sailwx.info

Track history (hours):
 
Tides and Currents Weather Stations Pressure Air Temp Water Temp Dewpoint Dewpoint Depression Visibility Wind Speed Wind Dir Waves Ship Positions

Eiwamaru

Last reported at 2016-Jul-27 09:33 UTC. Time now 2016-Jul-27 09:39 UTC.
Position N 35°09' E 139°46'.

Length 80 m; draft 4 m.

Type: Ship (hazmat cat A). MMSI: 431101045.

Date/timePositionNaut miles runAvg speedWind from/ knotsBaromVisibWave heightAir tempDewpointWater temp
2016-Jul-27 09:33N 35°09' E 139°46'  
2016-Jul-21 11:33N 34°07' E 135°03'3 2.6
2016-Jul-21 10:15N 34°07' E 135°07'22210.7
2016-Jul-20 13:28N 35°00' E 139°29'1412.9
2016-Jul-20 12:23N 35°08' E 139°43'1012.0
2016-Jul-20 11:34N 35°18' E 139°44'1211.9
2016-Jul-20 10:33N 35°29' E 139°48'2 1.7
2016-Jul-20 09:34N 35°31' E 139°46'0 0.0
2016-Jul-20 08:33N 35°31' E 139°46'0 0.0
2016-Jul-20 07:33N 35°31' E 139°46'0 0.0
2016-Jul-20 06:34N 35°31' E 139°46'0 0.0
2016-Jul-20 05:34N 35°31' E 139°46'0 0.0
2016-Jul-20 04:33N 35°31' E 139°46'0 0.0
2016-Jul-20 03:33N 35°31' E 139°46'0 0.0
2016-Jul-20 02:33N 35°31' E 139°46'0 0.0
2016-Jul-20 01:33N 35°31' E 139°46'0 0.0
2016-Jul-20 00:33N 35°31' E 139°46'0 0.0
2016-Jul-19 23:33N 35°31' E 139°46'1 0.7
2016-Jul-19 22:33N 35°30' E 139°47'3 2.6
2016-Jul-19 21:33N 35°30' E 139°50'0 0.1
2016-Jul-19 20:33N 35°30' E 139°50'0 0.1
2016-Jul-19 19:33N 35°30' E 139°50'0 0.1
2016-Jul-19 18:33N 35°30' E 139°50'0 0.0
2016-Jul-19 17:33N 35°30' E 139°50'0 0.0
2016-Jul-19 16:33N 35°30' E 139°50'0 0.0
2016-Jul-19 15:33N 35°30' E 139°50'0 0.0
2016-Jul-19 14:34N 35°30' E 139°50'0 0.0
2016-Jul-19 13:33N 35°30' E 139°50'0 0.0
2016-Jul-19 12:34N 35°30' E 139°50'0 0.0
2016-Jul-19 11:33N 35°30' E 139°50'0 0.1
2016-Jul-19 10:33N 35°30' E 139°50'4 3.6
2016-Jul-19 09:33N 35°31' E 139°46'0 0.0
2016-Jul-19 08:33N 35°31' E 139°46'0 0.0
2016-Jul-19 07:33N 35°31' E 139°46'0 0.0
2016-Jul-19 04:33N 35°31' E 139°46'0 0.0
2016-Jul-19 03:33N 35°31' E 139°46'0 0.0
2016-Jul-19 02:33N 35°31' E 139°46'0 0.0
2016-Jul-19 01:33N 35°31' E 139°46'0 0.0
2016-Jul-19 00:33N 35°31' E 139°46'3 3.3
2016-Jul-18 23:33N 35°28' E 139°48'0 0.0
2016-Jul-18 22:33N 35°28' E 139°48'0 0.0
2016-Jul-18 21:33N 35°28' E 139°48'0 0.0
2016-Jul-18 20:33N 35°28' E 139°48'0 0.0
2016-Jul-18 19:33N 35°28' E 139°48'0 0.0
2016-Jul-18 18:33N 35°28' E 139°48'0 0.0
2016-Jul-18 17:33N 35°28' E 139°48'0 0.0
2016-Jul-18 16:33N 35°28' E 139°48'0 0.1
2016-Jul-18 15:33N 35°28' E 139°48'0 0.0
2016-Jul-18 14:34N 35°28' E 139°48'1010.3
2016-Jul-18 13:33N 35°19' E 139°44'1212.0
2016-Jul-18 12:33N 35°07' E 139°45'15 0.6
2016-Jul-17 12:09N 34°60' E 139°29'1912.0
2016-Jul-17 10:33N 35°13' E 139°46'1211.7
2016-Jul-17 09:33N 35°24' E 139°43'  
Track history (hours):
 
Tides and Currents Weather Stations Pressure Air Temp Water Temp Dewpoint Dewpoint Depression Visibility Wind Speed Wind Dir Waves Ship Positions

Eiwamaru

Last reported at 2016-Jul-27 09:33 UTC. Time now 2016-Jul-27 09:39 UTC.
Position N 35°09' E 139°46'.

Length 80 m; draft 4 m.

Type: Ship (hazmat cat A). MMSI: 431101045.

Date/timePositionNaut miles runAvg speedWind from/ knotsBaromVisibWave heightAir tempDewpointWater temp
2016-Jul-27 09:33N 35°09' E 139°46'  
2016-Jul-21 11:33N 34°07' E 135°03'3 2.6
2016-Jul-21 10:15N 34°07' E 135°07'22210.7
2016-Jul-20 13:28N 35°00' E 139°29'1412.9
2016-Jul-20 12:23N 35°08' E 139°43'1012.0
2016-Jul-20 11:34N 35°18' E 139°44'1211.9
2016-Jul-20 10:33N 35°29' E 139°48'2 1.7
2016-Jul-20 09:34N 35°31' E 139°46'0 0.0
2016-Jul-20 08:33N 35°31' E 139°46'0 0.0
2016-Jul-20 07:33N 35°31' E 139°46'0 0.0
2016-Jul-20 06:34N 35°31' E 139°46'0 0.0
2016-Jul-20 05:34N 35°31' E 139°46'0 0.0
2016-Jul-20 04:33N 35°31' E 139°46'0 0.0
2016-Jul-20 03:33N 35°31' E 139°46'0 0.0
2016-Jul-20 02:33N 35°31' E 139°46'0 0.0
2016-Jul-20 01:33N 35°31' E 139°46'0 0.0
2016-Jul-20 00:33N 35°31' E 139°46'0 0.0
2016-Jul-19 23:33N 35°31' E 139°46'1 0.7
2016-Jul-19 22:33N 35°30' E 139°47'3 2.6
2016-Jul-19 21:33N 35°30' E 139°50'0 0.1
2016-Jul-19 20:33N 35°30' E 139°50'0 0.1
2016-Jul-19 19:33N 35°30' E 139°50'0 0.1
2016-Jul-19 18:33N 35°30' E 139°50'0 0.0
2016-Jul-19 17:33N 35°30' E 139°50'0 0.0
2016-Jul-19 16:33N 35°30' E 139°50'0 0.0
2016-Jul-19 15:33N 35°30' E 139°50'0 0.0
2016-Jul-19 14:34N 35°30' E 139°50'0 0.0
2016-Jul-19 13:33N 35°30' E 139°50'0 0.0
2016-Jul-19 12:34N 35°30' E 139°50'0 0.0
2016-Jul-19 11:33N 35°30' E 139°50'0 0.1
2016-Jul-19 10:33N 35°30' E 139°50'4 3.6
2016-Jul-19 09:33N 35°31' E 139°46'0 0.0
2016-Jul-19 08:33N 35°31' E 139°46'0 0.0
2016-Jul-19 07:33N 35°31' E 139°46'0 0.0
2016-Jul-19 04:33N 35°31' E 139°46'0 0.0
2016-Jul-19 03:33N 35°31' E 139°46'0 0.0
2016-Jul-19 02:33N 35°31' E 139°46'0 0.0
2016-Jul-19 01:33N 35°31' E 139°46'0 0.0
2016-Jul-19 00:33N 35°31' E 139°46'3 3.3
2016-Jul-18 23:33N 35°28' E 139°48'0 0.0
2016-Jul-18 22:33N 35°28' E 139°48'0 0.0
2016-Jul-18 21:33N 35°28' E 139°48'0 0.0
2016-Jul-18 20:33N 35°28' E 139°48'0 0.0
2016-Jul-18 19:33N 35°28' E 139°48'0 0.0
2016-Jul-18 18:33N 35°28' E 139°48'0 0.0
2016-Jul-18 17:33N 35°28' E 139°48'0 0.0
2016-Jul-18 16:33N 35°28' E 139°48'0 0.1
2016-Jul-18 15:33N 35°28' E 139°48'0 0.0
2016-Jul-18 14:34N 35°28' E 139°48'1010.3
2016-Jul-18 13:33N 35°19' E 139°44'1212.0
2016-Jul-18 12:33N 35°07' E 139°45'15 0.6
2016-Jul-17 12:09N 34°60' E 139°29'1912.0
2016-Jul-17 10:33N 35°13' E 139°46'1211.7
2016-Jul-17 09:33N 35°24' E 139°43'  

Dump ship's entire track history